createdAt,value
2023-02-06T00:00:38.233Z,101143.03
2023-02-06T00:03:08.819Z,101145.91
2023-02-06T00:05:42.223Z,101150.09
2023-02-06T00:08:12.944Z,101146.94
2023-02-06T00:10:44.005Z,101138.66
2023-02-06T00:13:14.835Z,101144.06
2023-02-06T00:15:46.335Z,101143.03
2023-02-06T00:18:17.258Z,101147.75
2023-02-06T00:20:47.638Z,101141.88
2023-02-06T00:23:18.288Z,101145.06
2023-02-06T00:25:51.152Z,101138.16
2023-02-06T00:28:21.813Z,101143.19
2023-02-06T00:30:54.197Z,101148.41
2023-02-06T00:33:24.950Z,101141.38
2023-02-06T00:35:57.997Z,101148.44
2023-02-06T00:38:28.175Z,101150.59
2023-02-06T00:40:58.660Z,101152.81
2023-02-06T00:43:29.500Z,101152.28
2023-02-06T00:46:00.053Z,101157.50
2023-02-06T00:48:31.088Z,101157.84
2023-02-06T00:51:02.029Z,101152.78
2023-02-06T00:53:35.667Z,101150.88
2023-02-06T00:56:06.435Z,101149.38
2023-02-06T00:58:37.324Z,101164.19
2023-02-06T01:01:07.982Z,101152.88
2023-02-06T01:03:38.766Z,101155.75
2023-02-06T01:06:09.179Z,101157.94
2023-02-06T01:08:40.388Z,101147.66
2023-02-06T01:11:13.043Z,101143.22
2023-02-06T01:13:43.899Z,101146.25
2023-02-06T01:16:17.166Z,101140.13
2023-02-06T01:18:48.105Z,101143.16
2023-02-06T01:21:21.974Z,101131.31
2023-02-06T01:23:54.176Z,101132.63
2023-02-06T01:26:27.865Z,101125.50
2023-02-06T01:28:59.752Z,101123.47
2023-02-06T01:31:31.323Z,101134.59
2023-02-06T01:34:02.017Z,101129.88
2023-02-06T01:36:33.691Z,101132.41
2023-02-06T01:39:05.477Z,101133.53
2023-02-06T01:41:36.282Z,101134.41
2023-02-06T01:44:16.372Z,101132.34
2023-02-06T01:46:49.750Z,101134.41
2023-02-06T01:49:25.887Z,101121.06
2023-02-06T01:52:03.983Z,101115.66
2023-02-06T01:54:35.654Z,101125.44
2023-02-06T01:57:11.378Z,101120.72
2023-02-06T01:59:46.151Z,101121.06
2023-02-06T02:02:17.201Z,101121.91
2023-02-06T02:04:48.595Z,101111.47
2023-02-06T02:07:23.397Z,101107.63
2023-02-06T02:09:55.227Z,101107.94
2023-02-06T02:12:26.075Z,101106.28
2023-02-06T02:14:57.197Z,101103.63
2023-02-06T02:17:45.807Z,101107.03
2023-02-06T02:20:41.715Z,101106.72
2023-02-06T02:23:34.769Z,101109.13
2023-02-06T02:26:40.826Z,101109.47
2023-02-06T02:29:12.219Z,101106.09
2023-02-06T02:32:20.005Z,101096.28
2023-02-06T02:35:15.189Z,101099.66
2023-02-06T02:38:05.198Z,101098.28
2023-02-06T02:40:59.058Z,101088.50
2023-02-06T02:43:46.197Z,101085.75
2023-02-06T02:46:35.463Z,101078.34
2023-02-06T02:49:21.805Z,101079.66
2023-02-06T02:51:53.603Z,101076.59
2023-02-06T02:54:24.100Z,101074.09
2023-02-06T02:56:58.553Z,101074.09
2023-02-06T02:59:41.020Z,101066.81
2023-02-06T03:02:24.088Z,101067.34
2023-02-06T03:05:07.869Z,101062.78
2023-02-06T03:08:17.568Z,101063.09
2023-02-06T03:11:14.808Z,101060.28
2023-02-06T03:14:09.183Z,101055.88
2023-02-06T03:16:46.920Z,101057.03
2023-02-06T03:19:39.426Z,101052.44
2023-02-06T03:22:10.698Z,101049.38
2023-02-06T03:24:41.750Z,101043.56
2023-02-06T03:27:15.233Z,101045.00
2023-02-06T03:29:46.722Z,101042.47
2023-02-06T03:32:19.239Z,101045.53
2023-02-06T03:35:14.480Z,101038.75
2023-02-06T03:37:45.745Z,101036.41
2023-02-06T03:40:16.866Z,101036.41
2023-02-06T03:42:57.257Z,101029.44
2023-02-06T03:45:34.638Z,101018.47
2023-02-06T03:48:17.597Z,101022.13
2023-02-06T03:50:51.154Z,101014.69
2023-02-06T03:53:23.388Z,101018.03
2023-02-06T03:55:57.982Z,101008.53
2023-02-06T03:58:28.639Z,100999.44
2023-02-06T04:01:02.671Z,100996.06
2023-02-06T04:03:34.015Z,100987.31
2023-02-06T04:06:04.390Z,100990.69
2023-02-06T04:08:35.168Z,100981.28
2023-02-06T04:11:06.346Z,100985.66
2023-02-06T04:13:37.202Z,100983.59
2023-02-06T04:16:08.290Z,100973.63
2023-02-06T04:18:38.682Z,100982.88
2023-02-06T04:21:10.005Z,100971.31
2023-02-06T04:23:40.469Z,100973.09
2023-02-06T04:26:11.448Z,100961.13
2023-02-06T04:28:41.988Z,100957.19
2023-02-06T04:31:12.572Z,100952.28
2023-02-06T04:33:43.428Z,100946.69
2023-02-06T04:36:13.985Z,100947.06
2023-02-06T04:38:44.606Z,100943.69
2023-02-06T04:41:15.316Z,100952.72
2023-02-06T04:43:45.763Z,100932.97
2023-02-06T04:46:17.564Z,100929.72
2023-02-06T04:48:48.751Z,100926.09
2023-02-06T04:51:19.288Z,100928.16
2023-02-06T04:53:50.313Z,100917.50
2023-02-06T04:56:21.459Z,100907.72
2023-02-06T04:58:52.457Z,100903.34
2023-02-06T05:01:23.959Z,100891.78
2023-02-06T05:03:54.540Z,100885.16
2023-02-06T05:06:25.426Z,100895.13
2023-02-06T05:08:55.843Z,100901.75
2023-02-06T05:11:26.867Z,100881.63
2023-02-06T05:13:57.639Z,100871.19
2023-02-06T05:16:29.661Z,100872.88
2023-02-06T05:19:00.587Z,100866.81
2023-02-06T05:21:31.545Z,100856.66
2023-02-06T05:24:02.537Z,100856.88
2023-02-06T05:26:33.629Z,100863.09
2023-02-06T05:29:04.182Z,100847.25
2023-02-06T05:31:35.317Z,100845.19
2023-02-06T05:34:06.225Z,100837.75
2023-02-06T05:36:37.790Z,100829.84
2023-02-06T05:39:08.613Z,100821.53
2023-02-06T05:41:39.566Z,100821.53
2023-02-06T05:44:11.928Z,100817.44
2023-02-06T05:46:42.981Z,100818.28
2023-02-06T05:49:13.695Z,100805.84
2023-02-06T05:51:44.623Z,100804.59
2023-02-06T05:54:18.004Z,100800.22
2023-02-06T05:56:48.815Z,100793.41
2023-02-06T05:59:19.635Z,100794.41
2023-02-06T06:01:50.037Z,100790.91
2023-02-06T06:04:20.777Z,100790.69
2023-02-06T06:06:51.730Z,100784.22
2023-02-06T06:09:23.185Z,100789.41
2023-02-06T06:11:54.241Z,100786.06
2023-02-06T06:14:24.763Z,100793.59
2023-02-06T06:16:56.047Z,100786.97
2023-02-06T06:19:26.855Z,100782.78
2023-02-06T06:21:59.784Z,100785.03
2023-02-06T06:24:30.584Z,100786.06
2023-02-06T06:27:01.472Z,100792.25
2023-02-06T06:29:32.400Z,100785.81
2023-02-06T06:32:03.700Z,100778.97
2023-02-06T06:34:34.470Z,100775.22
2023-02-06T06:37:05.507Z,100762.78
2023-02-06T06:39:36.015Z,100756.97
2023-02-06T06:42:09.743Z,100760.06
2023-02-06T06:44:40.469Z,100759.69
2023-02-06T06:47:11.847Z,100757.22
2023-02-06T06:49:42.701Z,100750.78
2023-02-06T06:52:24.073Z,100752.84
2023-02-06T06:54:56.644Z,100748.72
2023-02-06T06:57:27.284Z,100746.88
2023-02-06T06:59:58.420Z,100749.56
2023-02-06T07:02:29.514Z,100750.41
2023-02-06T07:05:01.306Z,100752.47
2023-02-06T07:07:32.229Z,100745.38
2023-02-06T07:10:03.000Z,100747.06
2023-02-06T07:12:33.804Z,100737.50
2023-02-06T07:15:04.632Z,100735.81
2023-02-06T07:17:35.687Z,100731.44
2023-02-06T07:20:06.792Z,100737.91
2023-02-06T07:22:37.081Z,100727.56
2023-02-06T07:25:08.603Z,100735.47
2023-02-06T07:27:41.734Z,100729.25
2023-02-06T07:30:12.835Z,100732.75
2023-02-06T07:32:43.439Z,100726.94
2023-02-06T07:35:16.224Z,100728.38
2023-02-06T07:37:46.843Z,100732.38
2023-02-06T07:40:17.867Z,100734.69
2023-02-06T07:42:49.575Z,100727.19
2023-02-06T07:45:28.004Z,100732.22
2023-02-06T07:48:01.928Z,100729.50
2023-02-06T07:50:33.314Z,100726.81
2023-02-06T07:53:03.817Z,100733.66
2023-02-06T07:55:34.484Z,100731.56
2023-02-06T07:58:05.391Z,100736.75
2023-02-06T08:00:37.595Z,100733.59
2023-02-06T08:03:10.183Z,100737.13
2023-02-06T08:05:41.282Z,100744.22
2023-02-06T08:08:11.807Z,100734.44
2023-02-06T08:10:43.118Z,100736.88
2023-02-06T08:13:13.652Z,100735.84
2023-02-06T08:15:46.014Z,100732.50
2023-02-06T08:18:18.260Z,100738.16
2023-02-06T08:21:08.219Z,100733.78
2023-02-06T08:23:39.746Z,100750.41
2023-02-06T08:26:16.710Z,100751.66
2023-02-06T08:28:48.449Z,100752.59
2023-02-06T08:31:25.438Z,100753.00
2023-02-06T08:33:57.232Z,100751.16
2023-02-06T08:36:30.719Z,100746.94
2023-02-06T08:39:02.408Z,100756.44
2023-02-06T08:41:38.110Z,100766.44
2023-02-06T08:44:15.345Z,100753.59
2023-02-06T08:46:47.165Z,100763.91
2023-02-06T08:49:20.221Z,100759.34
2023-02-06T08:51:51.327Z,100766.34
2023-02-06T08:54:26.072Z,100769.25
2023-02-06T08:57:01.952Z,100768.22
2023-02-06T08:59:33.579Z,100775.06
2023-02-06T09:02:05.081Z,100783.84
2023-02-06T09:04:38.570Z,100782.06
2023-02-06T09:07:09.082Z,100782.06
2023-02-06T09:09:40.149Z,100796.59
2023-02-06T09:12:12.842Z,100788.47
2023-02-06T09:14:43.563Z,100796.16
2023-02-06T09:17:14.329Z,100802.75
2023-02-06T09:19:45.394Z,100800.91
2023-02-06T09:22:16.106Z,100806.50
2023-02-06T09:24:46.327Z,100812.94
2023-02-06T09:27:17.231Z,100812.69
2023-02-06T09:29:49.146Z,100819.75
2023-02-06T09:32:20.105Z,100816.78
2023-02-06T09:34:50.606Z,100814.91
2023-02-06T09:37:21.064Z,100820.91
2023-02-06T09:39:52.552Z,100815.88
2023-02-06T09:42:40.340Z,100819.22
2023-02-06T09:45:18.565Z,100819.13
2023-02-06T09:47:59.017Z,100824.34
2023-02-06T09:50:58.915Z,100822.22
2023-02-06T09:53:47.757Z,100816.16
2023-02-06T09:56:35.884Z,100815.22
2023-02-06T09:59:17.067Z,100822.66
2023-02-06T10:02:14.371Z,100823.50
2023-02-06T10:04:57.050Z,100829.28
2023-02-06T10:07:52.082Z,100832.38
2023-02-06T10:10:33.914Z,100837.13
2023-02-06T10:13:14.933Z,100831.88
2023-02-06T10:15:49.087Z,100838.88
2023-02-06T10:18:28.679Z,100839.16
2023-02-06T10:21:11.296Z,100838.69
2023-02-06T10:24:06.434Z,100846.13
2023-02-06T10:26:41.005Z,100848.38
2023-02-06T10:29:23.553Z,100853.94
2023-02-06T10:32:15.750Z,100857.50
2023-02-06T10:35:23.044Z,100857.78
2023-02-06T10:38:05.791Z,100859.81
2023-02-06T10:40:51.259Z,100867.28
2023-02-06T10:43:50.095Z,100873.84
2023-02-06T10:46:23.959Z,100882.81
2023-02-06T10:49:13.198Z,100886.53
2023-02-06T10:51:49.448Z,100892.28
2023-02-06T10:54:22.264Z,100892.47
2023-02-06T10:56:56.049Z,100886.63
2023-02-06T10:59:53.750Z,100888.94
2023-02-06T11:02:52.812Z,100886.63
2023-02-06T11:05:33.467Z,100901.03
2023-02-06T11:08:32.591Z,100896.09
2023-02-06T11:11:22.872Z,100897.13
2023-02-06T11:13:58.041Z,100909.31
2023-02-06T11:16:29.858Z,100902.25
2023-02-06T11:19:02.354Z,100909.88
2023-02-06T11:21:52.353Z,100910.31
2023-02-06T11:24:25.697Z,100908.34
2023-02-06T11:27:02.311Z,100912.75
2023-02-06T11:29:44.865Z,100919.13
2023-02-06T11:32:43.889Z,100927.22
2023-02-06T11:35:37.454Z,100926.75
2023-02-06T11:38:20.581Z,100936.91
2023-02-06T11:41:01.623Z,100930.28
2023-02-06T11:43:44.692Z,100933.34
2023-02-06T11:46:31.383Z,100933.69
2023-02-06T11:49:06.928Z,100933.03
2023-02-06T11:52:06.656Z,100934.56
2023-02-06T11:54:37.473Z,100940.47
2023-02-06T11:57:33.374Z,100935.09
2023-02-06T12:00:24.968Z,100939.66
2023-02-06T12:02:57.177Z,100936.00
2023-02-06T12:05:32.447Z,100931.44
2023-02-06T12:08:15.698Z,100929.59
2023-02-06T12:10:59.824Z,100930.41
2023-02-06T12:13:44.575Z,100922.88
2023-02-06T12:16:16.444Z,100927.06
2023-02-06T12:18:50.187Z,100929.09
2023-02-06T12:21:42.057Z,100939.44
2023-02-06T12:24:49.935Z,100939.47
2023-02-06T12:27:31.492Z,100938.94
2023-02-06T12:30:20.169Z,100939.75
2023-02-06T12:32:55.392Z,100942.28
2023-02-06T12:35:38.687Z,100941.06
2023-02-06T12:38:27.834Z,100945.44
2023-02-06T12:41:19.594Z,100949.81
2023-02-06T12:43:55.674Z,100950.84
2023-02-06T12:46:27.981Z,100948.13
2023-02-06T12:49:01.490Z,100948.13
2023-02-06T12:51:56.696Z,100949.47
2023-02-06T12:54:35.010Z,100951.84
2023-02-06T12:57:27.727Z,100960.97
2023-02-06T13:00:15.690Z,100961.81
2023-02-06T13:03:10.850Z,100955.22
2023-02-06T13:05:47.858Z,100953.91
2023-02-06T13:08:22.063Z,100975.47
2023-02-06T13:11:03.561Z,100970.09
2023-02-06T13:13:42.664Z,100963.88
2023-02-06T13:16:13.534Z,100967.38
2023-02-06T13:18:51.420Z,100974.66
2023-02-06T13:21:26.172Z,100967.94
2023-02-06T13:24:03.059Z,100969.63
2023-02-06T13:26:54.337Z,100987.94
2023-02-06T13:29:27.488Z,100988.31
2023-02-06T13:32:19.445Z,100984.59
2023-02-06T13:35:16.246Z,100987.13
2023-02-06T13:37:49.543Z,100988.66
2023-02-06T13:40:27.206Z,100985.97
2023-02-06T13:42:57.970Z,100984.28
2023-02-06T13:45:31.613Z,100990.91
2023-02-06T13:48:06.710Z,100984.00
2023-02-06T13:50:47.786Z,100989.38
2023-02-06T13:53:54.413Z,100991.91
2023-02-06T13:56:28.260Z,100995.50
2023-02-06T13:59:06.937Z,100985.06
2023-02-06T14:01:38.072Z,100987.09
2023-02-06T14:04:11.415Z,100988.97
2023-02-06T14:07:08.523Z,100985.06
2023-02-06T14:10:24.924Z,100985.69
2023-02-06T14:13:21.906Z,100985.53
2023-02-06T14:16:17.282Z,100996.41
2023-02-06T14:19:20.287Z,100991.69
2023-02-06T14:21:58.526Z,100999.78
2023-02-06T14:24:49.965Z,100999.78
2023-02-06T14:27:57.183Z,101007.50
2023-02-06T14:30:30.436Z,101002.28
2023-02-06T14:33:38.495Z,100999.09
2023-02-06T14:37:05.099Z,101000.94
2023-02-06T14:39:43.937Z,100997.91
2023-02-06T14:42:17.170Z,100994.19
2023-02-06T14:44:52.319Z,101001.81
2023-02-06T14:47:27.948Z,101000.13
2023-02-06T14:50:01.039Z,100998.09
2023-02-06T14:52:34.277Z,100999.13
2023-02-06T14:55:30.478Z,101008.53
2023-02-06T14:58:01.505Z,101006.84
2023-02-06T15:00:33.167Z,101007.50
2023-02-06T15:03:17.217Z,101008.53
2023-02-06T15:05:49.173Z,101013.25
2023-02-06T15:08:21.432Z,101014.25
2023-02-06T15:11:02.434Z,101010.56
2023-02-06T15:13:38.634Z,101005.16
2023-02-06T15:16:11.077Z,101010.56
2023-02-06T15:18:42.008Z,101005.81
2023-02-06T15:21:25.076Z,100997.75
2023-02-06T15:24:20.022Z,101003.13
2023-02-06T15:27:17.004Z,100999.78
2023-02-06T15:29:52.128Z,101007.19
2023-02-06T15:32:35.100Z,101005.53
2023-02-06T15:35:27.178Z,101003.84
2023-02-06T15:37:57.816Z,101010.91
2023-02-06T15:40:32.590Z,101002.16
2023-02-06T15:43:03.985Z,101002.16
2023-02-06T15:45:38.171Z,101005.88
2023-02-06T15:48:20.276Z,100997.78
2023-02-06T15:50:58.601Z,100994.44
2023-02-06T15:53:35.780Z,100997.13
2023-02-06T15:56:09.171Z,100995.44
2023-02-06T15:58:40.687Z,100994.59
2023-02-06T16:01:18.664Z,100993.09
2023-02-06T16:03:54.206Z,100988.09
2023-02-06T16:06:25.285Z,100977.38
2023-02-06T16:09:00.953Z,100989.50
2023-02-06T16:11:48.341Z,100982.78
2023-02-06T16:14:29.776Z,100978.75
2023-02-06T16:17:22.070Z,100973.06
2023-02-06T16:20:03.893Z,100980.13
2023-02-06T16:22:38.742Z,100978.09
2023-02-06T16:25:26.735Z,100974.75
2023-02-06T16:27:57.880Z,100971.69
2023-02-06T16:30:36.039Z,100979.78
2023-02-06T16:33:34.786Z,100982.16
2023-02-06T16:36:05.542Z,100977.28
2023-02-06T16:38:36.610Z,100971.69
2023-02-06T16:41:38.080Z,100971.53
2023-02-06T16:44:13.759Z,100971.56
2023-02-06T16:46:46.166Z,100970.91
2023-02-06T16:49:25.318Z,100978.13
2023-02-06T16:51:56.060Z,100967.69
2023-02-06T16:54:32.598Z,100971.25
2023-02-06T16:57:10.556Z,100970.59
2023-02-06T16:59:41.002Z,100970.06
2023-02-06T17:02:16.200Z,100966.38
2023-02-06T17:04:46.658Z,100962.66
2023-02-06T17:07:24.055Z,100960.63
2023-02-06T17:09:55.946Z,100960.97
2023-02-06T17:12:26.584Z,100963.34
2023-02-06T17:14:57.372Z,100959.31
2023-02-06T17:17:28.204Z,100964.34
2023-02-06T17:19:59.272Z,100964.03
2023-02-06T17:22:30.043Z,100954.25
2023-02-06T17:25:01.452Z,100953.09
2023-02-06T17:27:31.555Z,100964.03
2023-02-06T17:30:01.967Z,100956.97
2023-02-06T17:32:32.687Z,100967.06
2023-02-06T17:35:03.719Z,100972.28
2023-02-06T17:37:34.322Z,100966.38
2023-02-06T17:40:09.034Z,100963.22
2023-02-06T17:42:39.373Z,100964.03
2023-02-06T17:45:10.293Z,100964.91
2023-02-06T17:47:42.791Z,100964.03
2023-02-06T17:50:19.823Z,100957.50
2023-02-06T17:52:50.843Z,100956.97
2023-02-06T17:55:21.227Z,100951.59
2023-02-06T17:57:52.075Z,100944.38
2023-02-06T18:00:26.998Z,100945.72
2023-02-06T18:03:00.168Z,100943.19
2023-02-06T18:05:31.193Z,100942.84
2023-02-06T18:08:01.701Z,100932.09
2023-02-06T18:10:32.188Z,100929.41
2023-02-06T18:13:02.547Z,100937.81
2023-02-06T18:15:32.913Z,100936.81
2023-02-06T18:18:11.771Z,100933.28
2023-02-06T18:20:43.706Z,100936.13
2023-02-06T18:23:15.068Z,100930.75
2023-02-06T18:25:45.506Z,100929.41
2023-02-06T18:28:18.213Z,100933.78
2023-02-06T18:30:48.691Z,100929.41
2023-02-06T18:33:19.042Z,100930.44
2023-02-06T18:35:51.964Z,100918.84
2023-02-06T18:38:23.366Z,100920.69
2023-02-06T18:40:56.342Z,100926.91
2023-02-06T18:43:28.487Z,100926.94
2023-02-06T18:45:58.832Z,100943.25
2023-02-06T18:48:29.285Z,100923.03
2023-02-06T18:51:01.784Z,100914.31
2023-02-06T18:53:32.683Z,100916.34
2023-02-06T18:56:03.730Z,100905.91
2023-02-06T18:58:34.409Z,100904.91
2023-02-06T19:01:04.657Z,100902.56
2023-02-06T19:03:35.411Z,100907.94
2023-02-06T19:06:12.724Z,100898.84
2023-02-06T19:08:46.288Z,100898.34
2023-02-06T19:11:17.161Z,100899.03
2023-02-06T19:13:47.672Z,100900.03
2023-02-06T19:16:21.669Z,100897.66
2023-02-06T19:18:52.420Z,100901.19
2023-02-06T19:21:24.561Z,100895.81
2023-02-06T19:24:03.647Z,100895.81
2023-02-06T19:26:34.942Z,100896.50
2023-02-06T19:29:05.741Z,100891.47
2023-02-06T19:31:40.021Z,100895.19
2023-02-06T19:34:10.757Z,100890.97
2023-02-06T19:36:41.751Z,100894.19
2023-02-06T19:39:14.600Z,100890.47
2023-02-06T19:41:45.246Z,100902.59
2023-02-06T19:44:16.170Z,100894.50
2023-02-06T19:46:46.707Z,100897.53
2023-02-06T19:49:17.164Z,100901.25
2023-02-06T19:51:48.236Z,100899.72
2023-02-06T19:54:18.720Z,100903.41
2023-02-06T19:56:51.777Z,100910.66
2023-02-06T19:59:27.116Z,100921.41
2023-02-06T20:01:59.343Z,100908.97
2023-02-06T20:04:36.360Z,100911.00
2023-02-06T20:07:07.103Z,100911.00
2023-02-06T20:09:42.099Z,100914.69
2023-02-06T20:12:13.576Z,100914.69
2023-02-06T20:14:43.925Z,100918.41
2023-02-06T20:17:14.576Z,100911.34
2023-02-06T20:19:45.186Z,100913.03
2023-02-06T20:22:15.635Z,100912.34
2023-02-06T20:24:46.422Z,100917.72
2023-02-06T20:27:16.900Z,100918.75
2023-02-06T20:29:48.226Z,100919.06
2023-02-06T20:32:20.331Z,100929.84
2023-02-06T20:34:50.674Z,100926.63
2023-02-06T20:37:22.366Z,100927.16
2023-02-06T20:39:57.199Z,100936.88
2023-02-06T20:42:29.806Z,100932.53
2023-02-06T20:45:01.897Z,100939.91
2023-02-06T20:47:32.661Z,100944.63
2023-02-06T20:50:03.571Z,100943.63
2023-02-06T20:52:35.227Z,100949.31
2023-02-06T20:55:05.635Z,100949.31
2023-02-06T20:57:37.284Z,100955.72
2023-02-06T21:00:08.154Z,100958.41
2023-02-06T21:02:38.715Z,100961.44
2023-02-06T21:05:09.667Z,100966.81
2023-02-06T21:07:41.659Z,100966.81
2023-02-06T21:10:12.283Z,100969.31
2023-02-06T21:12:43.034Z,100976.38
2023-02-06T21:15:16.854Z,100976.69
2023-02-06T21:17:48.167Z,100988.31
2023-02-06T21:20:20.746Z,100988.31
2023-02-06T21:22:53.790Z,100990.00
2023-02-06T21:25:26.862Z,100988.47
2023-02-06T21:27:57.407Z,100991.16
2023-02-06T21:30:37.114Z,100992.69
2023-02-06T21:33:08.101Z,101001.06
2023-02-06T21:35:41.198Z,100999.41
2023-02-06T21:38:12.533Z,101008.47
2023-02-06T21:40:45.131Z,101012.50
2023-02-06T21:43:18.407Z,101013.84
2023-02-06T21:45:50.041Z,101014.84
2023-02-06T21:48:21.077Z,101024.59
2023-02-06T21:50:52.057Z,101033.66
2023-02-06T21:53:23.315Z,101033.66
2023-02-06T21:55:54.085Z,101038.19
2023-02-06T21:58:25.649Z,101039.38
2023-02-06T22:00:57.437Z,101041.06
2023-02-06T22:03:28.476Z,101048.13
2023-02-06T22:06:14.695Z,101051.81
2023-02-06T22:08:49.109Z,101059.19
2023-02-06T22:11:25.335Z,101053.81
2023-02-06T22:14:00.700Z,101062.38
2023-02-06T22:16:31.952Z,101064.19
2023-02-06T22:19:02.580Z,101068.72
2023-02-06T22:21:34.351Z,101073.25
2023-02-06T22:24:07.337Z,101074.94
2023-02-06T22:26:39.630Z,101079.69
2023-02-06T22:29:13.088Z,101076.69
2023-02-06T22:31:44.463Z,101077.38
2023-02-06T22:34:20.640Z,101085.44
2023-02-06T22:36:52.141Z,101081.72
2023-02-06T22:39:23.227Z,101089.78
2023-02-06T22:41:54.093Z,101090.81
2023-02-06T22:44:24.469Z,101098.19
2023-02-06T22:46:55.453Z,101099.69
2023-02-06T22:49:27.304Z,101105.25
2023-02-06T22:51:59.716Z,101108.94
2023-02-06T22:54:41.526Z,101112.31
2023-02-06T22:57:12.175Z,101121.06
2023-02-06T22:59:42.729Z,101121.88
2023-02-06T23:02:13.943Z,101121.06
2023-02-06T23:04:44.355Z,101122.75
2023-02-06T23:07:15.141Z,101124.09
2023-02-06T23:09:45.674Z,101138.53
2023-02-06T23:12:17.224Z,101145.94
2023-02-06T23:14:47.590Z,101155.00
2023-02-06T23:17:18.782Z,101158.88
2023-02-06T23:19:49.900Z,101166.78
2023-02-06T23:22:20.369Z,101168.44
2023-02-06T23:24:52.630Z,101170.28
2023-02-06T23:27:23.768Z,101167.44
2023-02-06T23:29:54.273Z,101185.59
2023-02-06T23:32:24.831Z,101187.09
2023-02-06T23:34:57.067Z,101194.31
2023-02-06T23:37:27.740Z,101193.28
2023-02-06T23:39:58.345Z,101195.69
2023-02-06T23:42:30.557Z,101198.34
2023-02-06T23:45:02.152Z,101197.69
2023-02-06T23:47:32.937Z,101199.03
2023-02-06T23:50:03.848Z,101198.81
2023-02-06T23:52:34.288Z,101196.34
2023-02-06T23:55:05.899Z,101203.41
2023-02-06T23:57:37.976Z,101198.34
